createdAt,value
2023-05-05T00:01:08.975Z,60.94
2023-05-05T00:03:37.258Z,60.92
2023-05-05T00:06:06.501Z,61.28
2023-05-05T00:08:34.655Z,61.75
2023-05-05T00:11:02.806Z,61.67
2023-05-05T00:13:32.327Z,61.64
2023-05-05T00:16:00.592Z,61.50
2023-05-05T00:18:29.488Z,62.05
2023-05-05T00:20:57.632Z,62.28
2023-05-05T00:23:25.882Z,62.35
2023-05-05T00:25:54.082Z,62.50
2023-05-05T00:28:22.233Z,62.23
2023-05-05T00:30:51.757Z,62.44
2023-05-05T00:33:19.902Z,62.42
2023-05-05T00:35:48.150Z,62.63
2023-05-05T00:38:16.251Z,63.03
2023-05-05T00:40:44.362Z,63.16
2023-05-05T00:43:12.952Z,63.23
2023-05-05T00:45:44.129Z,63.24
2023-05-05T00:48:13.784Z,63.21
2023-05-05T00:50:44.766Z,63.27
2023-05-05T00:53:14.089Z,63.85
2023-05-05T00:55:42.574Z,63.83
2023-05-05T00:58:10.894Z,63.85
2023-05-05T01:00:38.989Z,63.27
2023-05-05T01:03:07.237Z,63.69
2023-05-05T01:05:52.757Z,63.88
2023-05-05T01:08:42.595Z,63.61
2023-05-05T01:11:18.164Z,63.47
2023-05-05T01:13:58.723Z,63.82
2023-05-05T01:16:30.767Z,64.10
2023-05-05T01:19:12.545Z,64.17
2023-05-05T01:21:47.756Z,64.35
2023-05-05T01:24:55.566Z,63.90
2023-05-05T01:27:45.928Z,64.35
2023-05-05T01:30:48.287Z,63.50
2023-05-05T01:33:26.748Z,64.22
2023-05-05T01:36:04.130Z,63.81
2023-05-05T01:38:41.754Z,63.87
2023-05-05T01:41:16.393Z,64.71
2023-05-05T01:43:49.882Z,65.10
2023-05-05T01:46:22.958Z,65.21
2023-05-05T01:48:56.136Z,65.34
2023-05-05T01:51:27.931Z,65.98
2023-05-05T01:54:01.611Z,65.96
2023-05-05T01:56:33.429Z,65.87
2023-05-05T01:59:03.377Z,65.94
2023-05-05T02:01:32.705Z,65.74
2023-05-05T02:04:06.227Z,65.70
2023-05-05T02:06:36.353Z,65.39
2023-05-05T02:09:05.025Z,65.16
2023-05-05T02:11:33.733Z,65.24
2023-05-05T02:14:04.002Z,65.08
2023-05-05T02:16:33.067Z,64.86
2023-05-05T02:19:05.359Z,64.55
2023-05-05T02:21:34.817Z,64.91
2023-05-05T02:24:03.558Z,65.07
2023-05-05T02:26:36.311Z,65.61
2023-05-05T02:29:08.828Z,65.01
2023-05-05T02:31:45.156Z,64.88
2023-05-05T02:34:22.256Z,65.41
2023-05-05T02:36:57.122Z,65.71
2023-05-05T02:39:32.847Z,65.25
2023-05-05T02:42:04.575Z,64.92
2023-05-05T02:44:36.915Z,65.23
2023-05-05T02:47:05.507Z,65.55
2023-05-05T02:49:35.075Z,65.35
2023-05-05T02:52:03.428Z,65.35
2023-05-05T02:54:33.851Z,65.79
2023-05-05T02:57:02.746Z,65.01
2023-05-05T02:59:42.077Z,65.66
2023-05-05T03:02:21.520Z,65.63
2023-05-05T03:05:01.807Z,65.83
2023-05-05T03:07:39.248Z,65.88
2023-05-05T03:10:13.111Z,66.23
2023-05-05T03:12:49.704Z,66.41
2023-05-05T03:15:20.880Z,66.73
2023-05-05T03:17:51.579Z,66.08
2023-05-05T03:20:23.024Z,66.33
2023-05-05T03:22:51.986Z,66.71
2023-05-05T03:25:20.083Z,67.33
2023-05-05T03:27:48.177Z,66.89
2023-05-05T03:30:16.535Z,66.83
2023-05-05T03:32:44.732Z,67.56
2023-05-05T03:35:13.007Z,68.09
2023-05-05T03:37:42.467Z,67.87
2023-05-05T03:40:12.163Z,67.71
2023-05-05T03:42:40.753Z,67.34
2023-05-05T03:45:10.249Z,67.68
2023-05-05T03:47:38.421Z,67.33
2023-05-05T03:50:08.589Z,67.19
2023-05-05T03:52:37.024Z,67.12
2023-05-05T03:55:07.866Z,67.14
2023-05-05T03:57:36.115Z,67.36
2023-05-05T04:00:04.568Z,67.27
2023-05-05T04:02:32.763Z,66.51
2023-05-05T04:05:01.147Z,66.17
2023-05-05T04:07:29.232Z,66.00
2023-05-05T04:09:57.321Z,65.95
2023-05-05T04:12:26.845Z,65.19
2023-05-05T04:14:54.942Z,63.69
2023-05-05T04:17:23.139Z,63.43
2023-05-05T04:19:51.297Z,63.42
2023-05-05T04:22:19.433Z,63.71
2023-05-05T04:24:47.529Z,64.12
2023-05-05T04:27:16.015Z,63.82
2023-05-05T04:29:45.794Z,63.54
2023-05-05T04:32:13.883Z,63.20
2023-05-05T04:34:42.016Z,63.28
2023-05-05T04:37:10.114Z,63.36
2023-05-05T04:39:38.312Z,63.70
2023-05-05T04:42:06.648Z,63.43
2023-05-05T04:44:35.138Z,62.96
2023-05-05T04:47:05.077Z,61.64
2023-05-05T04:49:33.596Z,61.73
2023-05-05T04:52:01.797Z,61.68
2023-05-05T04:54:29.942Z,59.55
2023-05-05T04:56:59.158Z,57.81
2023-05-05T04:59:27.288Z,55.46
2023-05-05T05:01:55.465Z,52.66
2023-05-05T05:04:25.920Z,48.03
2023-05-05T05:06:54.542Z,46.53
2023-05-05T05:09:23.462Z,45.31
2023-05-05T05:11:51.601Z,45.29
2023-05-05T05:14:19.719Z,46.05
2023-05-05T05:16:51.064Z,47.69
2023-05-05T05:19:19.256Z,49.28
2023-05-05T05:21:48.686Z,49.73
2023-05-05T05:24:16.675Z,50.15
2023-05-05T05:26:44.774Z,50.55
2023-05-05T05:29:12.812Z,50.57
2023-05-05T05:31:41.254Z,50.72
2023-05-05T05:34:11.289Z,50.78
2023-05-05T05:36:40.654Z,50.40
2023-05-05T05:39:10.037Z,49.97
2023-05-05T05:41:38.073Z,50.26
2023-05-05T05:44:06.434Z,49.88
2023-05-05T05:46:34.540Z,50.08
2023-05-05T05:49:02.764Z,49.91
2023-05-05T05:51:31.542Z,49.36
2023-05-05T05:53:59.616Z,49.14
2023-05-05T05:56:29.006Z,48.86
2023-05-05T05:58:57.590Z,48.64
2023-05-05T06:01:25.778Z,48.09
2023-05-05T06:03:54.088Z,48.12
2023-05-05T06:06:22.243Z,46.98
2023-05-05T06:08:50.264Z,46.97
2023-05-05T06:11:18.303Z,47.19
2023-05-05T06:13:47.728Z,47.14
2023-05-05T06:16:15.819Z,47.41
2023-05-05T06:18:43.917Z,47.34
2023-05-05T06:21:13.217Z,47.66
2023-05-05T06:23:42.107Z,46.66
2023-05-05T06:26:10.664Z,47.38
2023-05-05T06:28:38.949Z,46.51
2023-05-05T06:31:08.596Z,46.91
2023-05-05T06:33:36.664Z,47.70
2023-05-05T06:36:05.524Z,46.86
2023-05-05T06:38:33.555Z,46.98
2023-05-05T06:41:01.727Z,46.32
2023-05-05T06:43:30.408Z,45.64
2023-05-05T06:45:58.463Z,46.04
2023-05-05T06:48:27.994Z,46.09
2023-05-05T06:50:57.778Z,45.70
2023-05-05T06:53:25.940Z,45.91
2023-05-05T06:55:53.967Z,46.00
2023-05-05T06:58:22.164Z,45.77
2023-05-05T07:00:50.308Z,45.76
2023-05-05T07:03:18.552Z,44.90
2023-05-05T07:05:48.028Z,45.21
2023-05-05T07:08:16.140Z,45.31
2023-05-05T07:10:44.340Z,45.36
2023-05-05T07:13:12.427Z,45.41
2023-05-05T07:15:46.101Z,44.94
2023-05-05T07:18:14.438Z,45.25
2023-05-05T07:20:42.961Z,44.71
2023-05-05T07:23:12.563Z,44.59
2023-05-05T07:25:40.748Z,44.53
2023-05-05T07:28:08.875Z,44.90
2023-05-05T07:30:36.944Z,44.53
2023-05-05T07:33:05.304Z,44.59
2023-05-05T07:35:33.329Z,44.33
2023-05-05T07:38:01.386Z,43.85
2023-05-05T07:40:30.827Z,43.85
2023-05-05T07:42:58.837Z,43.16
2023-05-05T07:45:28.735Z,42.73
2023-05-05T07:47:56.796Z,42.71
2023-05-05T07:50:24.988Z,42.61
2023-05-05T07:52:59.358Z,42.93
2023-05-05T07:55:40.058Z,42.25
2023-05-05T07:58:08.491Z,41.95
2023-05-05T08:00:36.586Z,41.15
2023-05-05T08:03:05.171Z,41.51
2023-05-05T08:05:33.285Z,41.99
2023-05-05T08:08:01.300Z,41.52
2023-05-05T08:10:29.385Z,41.20
2023-05-05T08:12:58.875Z,40.62
2023-05-05T08:15:26.984Z,39.94
2023-05-05T08:17:55.754Z,39.52
2023-05-05T08:20:28.171Z,40.07
2023-05-05T08:22:56.224Z,40.02
2023-05-05T08:25:26.801Z,40.21
2023-05-05T08:27:55.134Z,40.10
2023-05-05T08:30:24.550Z,39.30
2023-05-05T08:32:52.852Z,39.63
2023-05-05T08:35:21.133Z,39.40
2023-05-05T08:37:49.192Z,39.47
2023-05-05T08:40:17.225Z,39.23
2023-05-05T08:42:46.464Z,39.13
2023-05-05T08:45:14.519Z,39.23
2023-05-05T08:47:44.175Z,39.14
2023-05-05T08:50:13.042Z,38.15
2023-05-05T08:52:44.662Z,38.59
2023-05-05T08:55:26.286Z,38.87
2023-05-05T08:57:57.827Z,38.85
2023-05-05T09:00:27.524Z,39.40
2023-05-05T09:02:59.790Z,38.41
2023-05-05T09:05:28.205Z,38.14
2023-05-05T09:07:56.305Z,38.27
2023-05-05T09:10:29.921Z,37.59
2023-05-05T09:12:58.649Z,37.13
2023-05-05T09:15:28.339Z,36.58
2023-05-05T09:17:59.014Z,36.39
2023-05-05T09:20:35.574Z,35.97
2023-05-05T09:23:11.046Z,36.06
2023-05-05T09:25:39.519Z,35.71
2023-05-05T09:28:12.631Z,35.13
2023-05-05T09:30:43.684Z,35.33
2023-05-05T09:33:14.134Z,35.77
2023-05-05T09:35:53.838Z,33.99
2023-05-05T09:38:23.958Z,35.62
2023-05-05T09:40:54.022Z,35.51
2023-05-05T09:43:24.474Z,35.72
2023-05-05T09:45:52.799Z,35.75
2023-05-05T09:48:30.541Z,35.43
2023-05-05T09:51:00.642Z,35.89
2023-05-05T09:53:42.184Z,35.19
2023-05-05T09:56:10.976Z,34.29
2023-05-05T09:58:39.020Z,34.12
2023-05-05T10:01:07.187Z,33.74
2023-05-05T10:03:52.678Z,33.84
2023-05-05T10:06:21.957Z,33.59
2023-05-05T10:09:02.680Z,33.09
2023-05-05T10:11:31.581Z,32.18
2023-05-05T10:13:59.808Z,31.87
2023-05-05T10:16:31.044Z,31.54
2023-05-05T10:19:04.912Z,31.71
2023-05-05T10:21:41.467Z,30.44
2023-05-05T10:24:22.914Z,29.98
2023-05-05T10:26:54.062Z,30.69
2023-05-05T10:29:37.343Z,30.82
2023-05-05T10:32:40.826Z,31.93
2023-05-05T10:35:05.683Z,32.80
2023-05-05T10:37:34.629Z,32.82
2023-05-05T10:40:03.550Z,32.92
2023-05-05T10:42:32.166Z,34.43
2023-05-05T10:45:00.291Z,31.42
2023-05-05T10:47:30.024Z,34.29
2023-05-05T10:50:08.510Z,34.91
2023-05-05T10:52:47.309Z,35.11
2023-05-05T10:55:21.522Z,34.79
2023-05-05T10:57:54.972Z,34.94
2023-05-05T11:00:52.182Z,34.81
2023-05-05T11:03:24.461Z,35.37
2023-05-05T11:06:15.364Z,35.23
2023-05-05T11:08:45.522Z,35.67
2023-05-05T11:11:14.522Z,35.98
2023-05-05T11:13:42.858Z,36.26
2023-05-05T11:16:47.323Z,36.30
2023-05-05T11:19:52.800Z,36.21
2023-05-05T11:22:22.186Z,35.94
2023-05-05T11:24:50.572Z,33.10
2023-05-05T11:27:18.784Z,32.97
2023-05-05T11:30:07.141Z,33.54
2023-05-05T11:32:35.921Z,34.39
2023-05-05T11:35:06.090Z,34.83
2023-05-05T11:37:38.430Z,34.57
2023-05-05T11:40:22.206Z,33.98
2023-05-05T11:42:50.485Z,31.71
2023-05-05T11:45:24.134Z,32.52
2023-05-05T11:47:52.250Z,32.32
2023-05-05T11:50:23.014Z,31.40
2023-05-05T11:52:52.534Z,30.85
2023-05-05T11:55:22.958Z,30.00
2023-05-05T11:57:51.362Z,30.14
2023-05-05T12:00:20.429Z,28.92
2023-05-05T12:02:57.290Z,28.83
2023-05-05T12:05:25.794Z,29.26
2023-05-05T12:07:59.573Z,29.77
2023-05-05T12:10:28.469Z,30.46
2023-05-05T12:12:56.644Z,30.41
2023-05-05T12:15:33.208Z,30.57
2023-05-05T12:18:03.112Z,30.40
2023-05-05T12:20:34.437Z,30.46
2023-05-05T12:23:05.115Z,30.62
2023-05-05T12:25:38.932Z,30.60
2023-05-05T12:28:08.849Z,31.04
2023-05-05T12:30:37.331Z,30.86
2023-05-05T12:33:07.522Z,30.60
2023-05-05T12:35:37.045Z,30.40
2023-05-05T12:38:06.853Z,29.93
2023-05-05T12:40:49.073Z,30.35
2023-05-05T12:43:31.420Z,30.50
2023-05-05T12:46:06.242Z,29.99
2023-05-05T12:48:35.830Z,30.40
2023-05-05T12:51:19.931Z,30.48
2023-05-05T12:54:01.653Z,30.67
2023-05-05T12:56:41.361Z,30.23
2023-05-05T12:59:11.849Z,30.48
2023-05-05T13:01:52.755Z,30.80
2023-05-05T13:04:22.824Z,31.20
2023-05-05T13:07:09.971Z,31.00
2023-05-05T13:09:39.621Z,31.49
2023-05-05T13:12:11.576Z,31.76
2023-05-05T13:14:39.872Z,31.68
2023-05-05T13:17:08.411Z,32.32
2023-05-05T13:19:41.668Z,32.69
2023-05-05T13:22:10.903Z,32.12
2023-05-05T13:24:50.959Z,31.71
2023-05-05T13:27:20.632Z,32.90
2023-05-05T13:29:48.872Z,32.66
2023-05-05T13:32:16.910Z,32.63
2023-05-05T13:34:44.970Z,31.87
2023-05-05T13:37:12.989Z,32.03
2023-05-05T13:39:42.459Z,33.21
2023-05-05T13:42:10.633Z,32.77
2023-05-05T13:44:38.692Z,32.77
2023-05-05T13:47:06.829Z,32.66
2023-05-05T13:49:36.330Z,32.13
2023-05-05T13:52:04.360Z,31.77
2023-05-05T13:54:32.448Z,31.68
2023-05-05T13:57:03.354Z,31.32
2023-05-05T13:59:31.469Z,31.51
2023-05-05T14:02:00.868Z,31.40
2023-05-05T14:04:29.048Z,31.40
2023-05-05T14:06:58.186Z,31.18
2023-05-05T14:09:26.290Z,32.32
2023-05-05T14:11:54.342Z,31.90
2023-05-05T14:14:23.740Z,31.90
2023-05-05T14:16:51.801Z,32.25
2023-05-05T14:19:19.868Z,31.90
2023-05-05T14:21:47.965Z,31.98
2023-05-05T14:24:15.977Z,31.67
2023-05-05T14:26:44.026Z,31.57
2023-05-05T14:29:12.083Z,31.89
2023-05-05T14:31:41.617Z,32.04
2023-05-05T14:34:09.686Z,32.27
2023-05-05T14:36:37.788Z,31.95
2023-05-05T14:39:05.912Z,32.39
2023-05-05T14:41:33.975Z,32.85
2023-05-05T14:44:02.019Z,32.93
2023-05-05T14:46:31.179Z,33.28
2023-05-05T14:49:00.854Z,32.90
2023-05-05T14:51:28.947Z,33.13
2023-05-05T14:53:56.979Z,33.06
2023-05-05T14:56:26.451Z,32.90
2023-05-05T14:58:54.684Z,32.48
2023-05-05T15:01:24.737Z,32.88
2023-05-05T15:03:53.880Z,33.30
2023-05-05T15:06:23.394Z,33.00
2023-05-05T15:08:51.475Z,33.22
2023-05-05T15:11:19.485Z,33.22
2023-05-05T15:13:47.507Z,33.97
2023-05-05T15:16:15.747Z,34.03
2023-05-05T15:18:43.801Z,34.44
2023-05-05T15:21:11.872Z,34.54
2023-05-05T15:23:41.312Z,34.11
2023-05-05T15:26:09.378Z,34.58
2023-05-05T15:28:37.706Z,34.53
2023-05-05T15:31:06.240Z,34.73
2023-05-05T15:33:34.770Z,35.14
2023-05-05T15:36:02.868Z,34.97
2023-05-05T15:38:31.200Z,34.76
2023-05-05T15:41:00.696Z,35.42
2023-05-05T15:43:29.199Z,35.53
2023-05-05T15:45:57.237Z,35.33
2023-05-05T15:48:25.302Z,35.48
2023-05-05T15:50:53.351Z,35.58
2023-05-05T15:53:21.437Z,35.31
2023-05-05T15:55:49.575Z,35.36
2023-05-05T15:58:19.019Z,35.10
2023-05-05T16:00:47.079Z,35.36
2023-05-05T16:03:15.161Z,35.81
2023-05-05T16:05:43.335Z,35.18
2023-05-05T16:08:11.382Z,35.10
2023-05-05T16:10:39.442Z,35.17
2023-05-05T16:13:07.496Z,35.48
2023-05-05T16:15:37.191Z,35.78
2023-05-05T16:18:05.538Z,36.35
2023-05-05T16:20:33.632Z,36.20
2023-05-05T16:23:01.677Z,36.04
2023-05-05T16:25:29.718Z,36.51
2023-05-05T16:27:57.794Z,36.52
2023-05-05T16:30:25.927Z,36.72
2023-05-05T16:32:55.354Z,36.50
2023-05-05T16:35:23.907Z,36.90
2023-05-05T16:37:52.486Z,36.94
2023-05-05T16:40:20.656Z,37.30
2023-05-05T16:42:48.720Z,37.52
2023-05-05T16:45:16.828Z,37.69
2023-05-05T16:47:44.920Z,37.82
2023-05-05T16:50:14.417Z,38.26
2023-05-05T16:52:42.494Z,38.24
2023-05-05T16:55:10.970Z,38.29
2023-05-05T16:57:39.471Z,37.93
2023-05-05T17:00:10.216Z,38.50
2023-05-05T17:02:38.317Z,38.84
2023-05-05T17:05:07.536Z,38.59
2023-05-05T17:07:37.237Z,38.99
2023-05-05T17:10:06.710Z,39.48
2023-05-05T17:12:34.748Z,39.42
2023-05-05T17:15:03.041Z,39.88
2023-05-05T17:17:31.153Z,39.97
2023-05-05T17:19:59.351Z,40.13
2023-05-05T17:22:27.701Z,40.07
2023-05-05T17:24:57.350Z,40.33
2023-05-05T17:27:25.501Z,40.73
2023-05-05T17:29:54.500Z,40.81
2023-05-05T17:32:22.662Z,40.84
2023-05-05T17:34:50.745Z,41.08
2023-05-05T17:37:18.795Z,41.46
2023-05-05T17:39:46.879Z,41.25
2023-05-05T17:42:18.675Z,41.65
2023-05-05T17:44:47.712Z,41.70
2023-05-05T17:47:15.794Z,41.71
2023-05-05T17:49:43.862Z,41.92
2023-05-05T17:52:11.863Z,42.34
2023-05-05T17:54:41.442Z,42.36
2023-05-05T17:57:09.569Z,42.59
2023-05-05T17:59:39.042Z,42.92
2023-05-05T18:02:07.124Z,42.61
2023-05-05T18:04:36.988Z,42.90
2023-05-05T18:07:05.526Z,43.30
2023-05-05T18:09:33.533Z,43.44
2023-05-05T18:12:01.595Z,43.83
2023-05-05T18:14:29.641Z,44.07
2023-05-05T18:16:59.087Z,44.04
2023-05-05T18:19:27.175Z,44.11
2023-05-05T18:21:55.543Z,44.56
2023-05-05T18:24:24.164Z,45.24
2023-05-05T18:26:53.815Z,45.27
2023-05-05T18:29:23.256Z,46.26
2023-05-05T18:31:54.692Z,47.35
2023-05-05T18:34:24.241Z,50.19
2023-05-05T18:36:54.197Z,51.16
2023-05-05T18:39:22.417Z,51.79
2023-05-05T18:41:50.532Z,52.56
2023-05-05T18:44:19.336Z,53.59
2023-05-05T18:46:47.826Z,54.31
2023-05-05T18:49:16.289Z,54.96
2023-05-05T18:51:45.702Z,55.86
2023-05-05T18:54:13.842Z,56.10
2023-05-05T18:56:42.228Z,56.34
2023-05-05T18:59:10.279Z,56.47
2023-05-05T19:01:38.502Z,56.85
2023-05-05T19:04:15.622Z,57.59
2023-05-05T19:06:52.792Z,57.70
2023-05-05T19:09:20.912Z,57.98
2023-05-05T19:11:48.943Z,57.92
2023-05-05T19:14:17.666Z,57.90
2023-05-05T19:16:45.915Z,57.97
2023-05-05T19:19:14.376Z,58.07
2023-05-05T19:21:42.585Z,58.18
2023-05-05T19:24:12.012Z,58.37
2023-05-05T19:26:40.149Z,58.52
2023-05-05T19:29:08.258Z,58.11
2023-05-05T19:31:36.383Z,58.46
2023-05-05T19:34:06.138Z,60.71
2023-05-05T19:36:35.464Z,65.70
2023-05-05T19:39:05.428Z,67.80
2023-05-05T19:41:35.574Z,69.59
2023-05-05T19:44:03.723Z,71.53
2023-05-05T19:46:31.913Z,72.96
2023-05-05T19:48:59.989Z,73.89
2023-05-05T19:51:28.088Z,75.05
2023-05-05T19:53:56.183Z,74.26
2023-05-05T19:56:24.224Z,74.68
2023-05-05T19:58:59.145Z,74.36
2023-05-05T20:01:28.556Z,75.67
2023-05-05T20:03:57.959Z,76.77
2023-05-05T20:06:26.908Z,76.49
2023-05-05T20:08:55.688Z,77.44
2023-05-05T20:11:24.216Z,78.02
2023-05-05T20:13:53.195Z,78.15
2023-05-05T20:16:22.887Z,79.01
2023-05-05T20:18:51.126Z,80.07
2023-05-05T20:21:21.140Z,81.82
2023-05-05T20:23:49.379Z,82.33
2023-05-05T20:26:17.829Z,82.61
2023-05-05T20:28:46.206Z,83.85
2023-05-05T20:31:15.764Z,84.58
2023-05-05T20:33:45.551Z,84.92
2023-05-05T20:36:13.697Z,84.83
2023-05-05T20:38:41.840Z,85.10
2023-05-05T20:41:10.022Z,85.15
2023-05-05T20:43:38.623Z,85.29
2023-05-05T20:46:07.126Z,85.66
2023-05-05T20:51:06.671Z,86.98
2023-05-05T20:53:35.109Z,87.22
2023-05-05T20:56:03.292Z,87.35
2023-05-05T20:58:32.101Z,87.72
2023-05-05T21:01:00.454Z,88.33
2023-05-05T21:03:28.760Z,89.12
2023-05-05T21:05:56.933Z,89.99
2023-05-05T21:08:26.779Z,90.10
2023-05-05T21:10:54.906Z,91.00
2023-05-05T21:13:23.189Z,91.58
2023-05-05T21:15:51.487Z,92.40
2023-05-05T21:18:19.604Z,92.46
2023-05-05T21:20:47.737Z,92.06
2023-05-05T21:23:15.887Z,90.94
2023-05-05T21:25:45.470Z,90.84
2023-05-05T21:28:13.625Z,90.98
2023-05-05T21:30:41.864Z,90.89
2023-05-05T21:33:10.075Z,89.87
2023-05-05T21:35:38.760Z,89.82
2023-05-05T21:38:06.899Z,90.16
2023-05-05T21:40:35.012Z,90.15
2023-05-05T21:43:04.535Z,90.14
2023-05-05T21:45:32.849Z,90.44
2023-05-05T21:48:01.415Z,90.76
2023-05-05T21:50:29.774Z,90.62
2023-05-05T21:52:58.005Z,90.38
2023-05-05T21:55:26.362Z,89.70
2023-05-05T21:57:54.528Z,89.54
2023-05-05T22:00:24.708Z,89.31
2023-05-05T22:02:52.946Z,89.25
2023-05-05T22:05:21.688Z,89.37
2023-05-05T22:07:49.943Z,88.67
2023-05-05T22:10:18.309Z,89.07
2023-05-05T22:12:46.691Z,89.32
2023-05-05T22:15:15.311Z,89.97
2023-05-05T22:17:44.846Z,90.18
2023-05-05T22:20:13.736Z,90.41
2023-05-05T22:22:41.845Z,90.41
2023-05-05T22:25:11.384Z,90.09
2023-05-05T22:27:39.766Z,90.22
2023-05-05T22:30:09.895Z,90.62
2023-05-05T22:32:38.537Z,91.00
2023-05-05T22:35:09.488Z,91.14
2023-05-05T22:37:37.708Z,91.39
2023-05-05T22:40:09.584Z,91.47
2023-05-05T22:42:37.870Z,91.33
2023-05-05T22:45:07.141Z,91.39
2023-05-05T22:47:35.418Z,91.42
2023-05-05T22:50:03.556Z,91.17
2023-05-05T22:52:33.079Z,91.05
2023-05-05T22:55:01.268Z,91.22
2023-05-05T22:57:29.428Z,91.23
2023-05-05T22:59:57.644Z,89.50
2023-05-05T23:02:26.550Z,89.12
2023-05-05T23:04:55.813Z,89.35
2023-05-05T23:07:23.990Z,89.67
2023-05-05T23:09:53.569Z,89.79
2023-05-05T23:12:21.833Z,89.82
2023-05-05T23:14:49.990Z,90.55
2023-05-05T23:17:18.168Z,90.25
2023-05-05T23:19:49.574Z,89.94
2023-05-05T23:22:17.738Z,90.07
2023-05-05T23:24:45.908Z,90.25
2023-05-05T23:27:15.377Z,88.11
2023-05-05T23:29:43.486Z,89.18
2023-05-05T23:32:11.594Z,88.33
2023-05-05T23:34:39.708Z,87.45
2023-05-05T23:37:07.857Z,88.70
2023-05-05T23:39:36.701Z,89.11
2023-05-05T23:42:05.001Z,89.25
2023-05-05T23:44:34.461Z,89.68
2023-05-05T23:47:02.565Z,89.74
2023-05-05T23:49:30.661Z,89.94
2023-05-05T23:51:59.086Z,90.56
2023-05-05T23:54:27.173Z,90.75
2023-05-05T23:56:55.377Z,90.23
2023-05-05T23:59:23.491Z,90.16
